Time;durP1;ratioP1;P1;durP2;ratioP2;P2;SDS_P1;SDS_P2;PMS_P1;PMS_P2;Temp;Humidity;BMP_temperature;BMP_pressure;BME280_temperature;BME280_humidity;BME280_pressure;Samples;Min_cycle;Max_cycle;Signal;HPM_P1;HPM_P2
2023/01/29 00:00:22;;;;;;;;;;;4.10;99.90;;;;;;8400984;28;19931;-74
2023/01/29 00:04:24;;;;;;;;;;;4.10;99.90;;;;;;8401772;28;19976;-75
2023/01/29 00:08:26;;;;;;;;;;;4.10;99.90;;;;;;8384479;28;20019;-75
2023/01/29 00:12:27;;;;;;;;;;;4.00;99.90;;;;;;8384212;28;19948;-75
2023/01/29 00:16:29;;;;;;;;;;;4.00;99.90;;;;;;8383555;28;19946;-75
2023/01/29 00:20:31;;;;;;;;;;;4.00;99.90;;;;;;8388335;28;19928;-75
2023/01/29 00:24:32;;;;;;;;;;;4.00;99.90;;;;;;8364640;28;19972;-75
2023/01/29 00:28:35;;;;;;;;;;;3.90;99.90;;;;;;8376132;28;19930;-75
2023/01/29 00:32:38;;;;;;;;;;;3.90;99.90;;;;;;8362177;28;19925;-75
2023/01/29 00:36:39;;;;;;;;;;;3.90;99.90;;;;;;8396191;28;19935;-75
2023/01/29 00:45:15;;;;;;;;;;;3.80;99.90;;;;;;8345213;28;19935;-75
2023/01/29 00:49:17;;;;;;;;;;;3.80;99.90;;;;;;8377047;28;19928;-74
2023/01/29 00:53:18;;;;;;;;;;;3.80;99.90;;;;;;8391438;28;20432;-75
2023/01/29 00:57:20;;;;;;;;;;;3.80;99.90;;;;;;8389880;28;19925;-75
2023/01/29 01:05:43;;;;;;;;;;;3.80;99.90;;;;;;8384078;28;19931;-74
2023/01/29 01:14:04;;;;;;;;;;;3.80;99.90;;;;;;8383127;28;19976;-75
2023/01/29 01:18:06;;;;;;;;;;;3.70;99.90;;;;;;8383601;28;19925;-75
2023/01/29 01:22:08;;;;;;;;;;;3.70;99.90;;;;;;8389317;28;19924;-74
2023/01/29 01:26:10;;;;;;;;;;;3.70;99.90;;;;;;8389277;28;19974;-75
2023/01/29 01:30:13;;;;;;;;;;;3.60;99.90;;;;;;8394505;28;19929;-75
2023/01/29 01:34:15;;;;;;;;;;;3.60;99.90;;;;;;8383697;28;19977;-75
2023/01/29 01:38:16;;;;;;;;;;;3.60;99.90;;;;;;8385965;28;19925;-75
2023/01/29 01:42:18;;;;;;;;;;;3.60;99.90;;;;;;8393830;28;19928;-75
2023/01/29 01:46:20;;;;;;;;;;;3.60;99.90;;;;;;8378747;28;19933;-75
2023/01/29 01:50:28;;;;;;;;;;;3.60;99.90;;;;;;8364445;28;20291;-75
2023/01/29 01:54:31;;;;;;;;;;;3.60;99.90;;;;;;8381805;28;19925;-75
2023/01/29 01:58:35;;;;;;;;;;;3.60;99.90;;;;;;8394339;28;20034;-75
2023/01/29 02:11:19;;;;;;;;;;;3.70;99.90;;;;;;8387008;28;20713;-75
2023/01/29 02:15:21;;;;;;;;;;;3.70;99.90;;;;;;8383940;28;20383;-75
2023/01/29 02:19:41;;;;;;;;;;;3.70;99.90;;;;;;8384285;28;20851;-74
2023/01/29 02:23:59;;;;;;;;;;;3.70;99.90;;;;;;8381916;28;19959;-75
2023/01/29 02:28:09;;;;;;;;;;;3.70;99.90;;;;;;8392302;28;19960;-75
2023/01/29 02:32:17;;;;;;;;;;;3.70;99.90;;;;;;8388135;28;19983;-75
2023/01/29 02:36:38;;;;;;;;;;;3.80;99.90;;;;;;8389142;28;19935;-75
2023/01/29 02:40:50;;;;;;;;;;;3.80;99.90;;;;;;8376476;28;20390;-75
2023/01/29 02:45:03;;;;;;;;;;;3.80;99.90;;;;;;8387399;28;19960;-74
2023/01/29 02:49:09;;;;;;;;;;;3.80;99.90;;;;;;8394009;28;19956;-75
2023/01/29 02:53:14;;;;;;;;;;;3.80;99.90;;;;;;8388103;28;19932;-75
2023/01/29 02:57:24;;;;;;;;;;;3.80;99.90;;;;;;8392718;28;19924;-75
2023/01/29 03:01:31;;;;;;;;;;;3.80;99.90;;;;;;8392364;28;19928;-75
2023/01/29 03:05:42;;;;;;;;;;;3.90;99.90;;;;;;8390498;28;19929;-75
2023/01/29 03:09:47;;;;;;;;;;;3.90;99.90;;;;;;8386073;28;20376;-75
2023/01/29 03:13:52;;;;;;;;;;;3.90;99.90;;;;;;8387671;28;19925;-74
2023/01/29 03:17:53;;;;;;;;;;;3.90;99.90;;;;;;8389496;28;19998;-75
2023/01/29 03:21:59;;;;;;;;;;;3.90;99.90;;;;;;8390403;28;19940;-75
2023/01/29 03:34:50;;;;;;;;;;;3.90;99.90;;;;;;8387049;28;19932;-75
2023/01/29 03:38:52;;;;;;;;;;;3.90;99.90;;;;;;8392599;28;19967;-75
2023/01/29 03:43:06;;;;;;;;;;;3.80;99.90;;;;;;8371056;28;19925;-75
2023/01/29 03:47:15;;;;;;;;;;;3.80;99.90;;;;;;8379097;28;19925;-75
2023/01/29 03:51:33;;;;;;;;;;;3.80;99.90;;;;;;8387872;28;19935;-75
2023/01/29 03:55:44;;;;;;;;;;;3.80;99.90;;;;;;8368788;28;19935;-74
2023/01/29 03:59:54;;;;;;;;;;;3.80;99.90;;;;;;8380397;28;19932;-74
2023/01/29 04:04:16;;;;;;;;;;;3.70;99.90;;;;;;8382160;28;19931;-75
2023/01/29 04:08:23;;;;;;;;;;;3.70;99.90;;;;;;8376968;28;20465;-75
2023/01/29 04:12:27;;;;;;;;;;;3.70;99.90;;;;;;8381182;28;20399;-75
2023/01/29 04:16:35;;;;;;;;;;;3.60;99.90;;;;;;8381864;28;19931;-75
2023/01/29 04:20:36;;;;;;;;;;;3.60;99.90;;;;;;8392958;28;19924;-74
2023/01/29 04:24:39;;;;;;;;;;;3.50;99.90;;;;;;8372160;28;19932;-75
2023/01/29 04:28:49;;;;;;;;;;;3.50;99.90;;;;;;8392422;28;19947;-75
2023/01/29 04:33:11;;;;;;;;;;;3.40;99.90;;;;;;8386989;28;19932;-74
2023/01/29 04:37:19;;;;;;;;;;;3.40;99.90;;;;;;8397770;28;19924;-74
2023/01/29 04:41:26;;;;;;;;;;;3.40;99.90;;;;;;8372585;28;20195;-75
2023/01/29 04:45:46;;;;;;;;;;;3.40;99.90;;;;;;8382131;28;20316;-74
2023/01/29 04:49:53;;;;;;;;;;;3.40;99.90;;;;;;8381753;28;19928;-75
2023/01/29 04:53:58;;;;;;;;;;;3.40;99.90;;;;;;8380699;28;19925;-75
2023/01/29 04:57:59;;;;;;;;;;;3.40;99.90;;;;;;8391133;28;20394;-75
2023/01/29 05:02:02;;;;;;;;;;;3.40;99.90;;;;;;8389005;28;20589;-74
2023/01/29 05:06:04;;;;;;;;;;;3.40;99.90;;;;;;8393692;28;20676;-75
2023/01/29 05:10:07;;;;;;;;;;;3.40;99.90;;;;;;8391512;28;20388;-75
2023/01/29 05:14:12;;;;;;;;;;;3.40;99.90;;;;;;8382779;28;19955;-74
2023/01/29 05:18:13;;;;;;;;;;;3.30;99.90;;;;;;8387037;28;19931;-75
2023/01/29 05:22:16;;;;;;;;;;;3.40;99.90;;;;;;8370486;28;20376;-75
2023/01/29 05:30:41;;;;;;;;;;;3.30;99.90;;;;;;8387148;28;19924;-75
2023/01/29 05:34:43;;;;;;;;;;;3.40;99.90;;;;;;8370481;28;19933;-75
2023/01/29 05:38:44;;;;;;;;;;;3.40;99.90;;;;;;8386619;28;19928;-75
2023/01/29 05:42:46;;;;;;;;;;;3.40;99.90;;;;;;8386193;28;19932;-75
2023/01/29 05:46:49;;;;;;;;;;;3.40;99.90;;;;;;8382687;28;19928;-75
2023/01/29 05:50:50;;;;;;;;;;;3.40;99.90;;;;;;8389493;28;19924;-75
2023/01/29 05:54:52;;;;;;;;;;;3.40;99.90;;;;;;8375789;28;20364;-75
2023/01/29 05:58:54;;;;;;;;;;;3.40;99.90;;;;;;8385457;28;20031;-75
2023/01/29 06:02:57;;;;;;;;;;;3.40;99.90;;;;;;8375536;28;19971;-75
2023/01/29 06:07:00;;;;;;;;;;;3.40;99.90;;;;;;8387264;28;20398;-74
2023/01/29 06:11:01;;;;;;;;;;;3.40;99.90;;;;;;8394036;28;20026;-75
2023/01/29 06:15:03;;;;;;;;;;;3.40;99.90;;;;;;8402761;28;19924;-75
2023/01/29 06:19:05;;;;;;;;;;;3.40;99.90;;;;;;8400490;28;19970;-75
2023/01/29 06:23:07;;;;;;;;;;;3.30;99.90;;;;;;8398733;28;20425;-74
2023/01/29 06:27:08;;;;;;;;;;;3.30;99.90;;;;;;8401388;28;19970;-75
2023/01/29 06:31:10;;;;;;;;;;;3.30;99.90;;;;;;8384726;28;19925;-75
2023/01/29 06:35:32;;;;;;;;;;;3.30;99.90;;;;;;8397867;28;19928;-75
2023/01/29 06:39:33;;;;;;;;;;;3.30;99.90;;;;;;8379425;28;20007;-74
2023/01/29 06:43:35;;;;;;;;;;;3.30;99.90;;;;;;8381928;28;19930;-75
2023/01/29 06:47:37;;;;;;;;;;;3.30;99.90;;;;;;8392039;28;19979;-75
2023/01/29 06:51:38;;;;;;;;;;;3.30;99.90;;;;;;8366096;28;19967;-75
2023/01/29 06:55:40;;;;;;;;;;;3.30;99.90;;;;;;8380538;28;19931;-75
2023/01/29 06:59:42;;;;;;;;;;;3.30;99.90;;;;;;8397065;28;19935;-75
2023/01/29 07:03:43;;;;;;;;;;;3.40;99.90;;;;;;8397675;28;19932;-74
2023/01/29 07:07:45;;;;;;;;;;;3.40;99.90;;;;;;8373022;28;19924;-75
2023/01/29 07:11:47;;;;;;;;;;;3.40;99.90;;;;;;8395933;28;19939;-75
2023/01/29 07:15:48;;;;;;;;;;;3.30;99.90;;;;;;8400168;28;19932;-75
2023/01/29 07:19:50;;;;;;;;;;;3.30;99.90;;;;;;8392617;28;19960;-75
2023/01/29 07:23:52;;;;;;;;;;;3.40;99.90;;;;;;8396556;28;19933;-74
2023/01/29 07:27:53;;;;;;;;;;;3.40;99.90;;;;;;8378357;28;19964;-75
2023/01/29 07:31:55;;;;;;;;;;;3.40;99.90;;;;;;8369922;28;19948;-74
2023/01/29 07:35:57;;;;;;;;;;;3.30;99.90;;;;;;8390740;28;19977;-75
2023/01/29 07:39:58;;;;;;;;;;;3.30;99.90;;;;;;8397721;28;20720;-75
2023/01/29 07:44:00;;;;;;;;;;;3.40;99.90;;;;;;8394372;28;19928;-75
2023/01/29 07:48:03;;;;;;;;;;;3.40;99.90;;;;;;8377136;28;19931;-75
2023/01/29 07:52:05;;;;;;;;;;;3.40;99.90;;;;;;8397433;28;20075;-74
2023/01/29 07:56:06;;;;;;;;;;;3.40;99.90;;;;;;8374143;28;19925;-75
2023/01/29 08:00:09;;;;;;;;;;;3.40;99.90;;;;;;8376755;28;20298;-75
2023/01/29 08:04:10;;;;;;;;;;;3.40;99.90;;;;;;8404482;28;19955;-75
2023/01/29 08:08:12;;;;;;;;;;;3.40;99.90;;;;;;8376115;28;20363;-75
2023/01/29 08:12:14;;;;;;;;;;;3.40;99.90;;;;;;8393257;28;19925;-75
2023/01/29 08:16:15;;;;;;;;;;;3.40;99.90;;;;;;8402791;28;19987;-75
2023/01/29 08:20:18;;;;;;;;;;;3.40;99.90;;;;;;8372958;28;19955;-75
2023/01/29 08:24:20;;;;;;;;;;;3.40;99.90;;;;;;8393277;28;20296;-75
2023/01/29 08:28:21;;;;;;;;;;;3.40;99.90;;;;;;8374122;28;19924;-75
2023/01/29 08:32:23;;;;;;;;;;;3.40;99.90;;;;;;8384351;28;20351;-75
2023/01/29 08:36:24;;;;;;;;;;;3.50;99.90;;;;;;8384950;28;19924;-75
2023/01/29 08:40:27;;;;;;;;;;;3.50;99.90;;;;;;8394411;28;19983;-74
2023/01/29 08:44:29;;;;;;;;;;;3.50;99.90;;;;;;8394233;28;19934;-75
2023/01/29 08:48:30;;;;;;;;;;;3.50;99.90;;;;;;8379729;28;19928;-74
2023/01/29 08:52:32;;;;;;;;;;;3.50;99.90;;;;;;8369732;28;19956;-74
2023/01/29 08:56:34;;;;;;;;;;;3.50;99.90;;;;;;8369912;28;19933;-75
2023/01/29 09:00:36;;;;;;;;;;;3.50;99.90;;;;;;8384359;28;19931;-74
2023/01/29 09:04:37;;;;;;;;;;;3.50;99.90;;;;;;8388758;28;19932;-75
2023/01/29 09:08:40;;;;;;;;;;;3.50;99.90;;;;;;8401997;28;19937;-74
2023/01/29 09:12:41;;;;;;;;;;;3.50;99.90;;;;;;8368201;28;19932;-75
2023/01/29 09:16:43;;;;;;;;;;;3.50;99.90;;;;;;8392579;28;20059;-74
2023/01/29 09:20:45;;;;;;;;;;;3.60;99.90;;;;;;8391049;28;19928;-75
2023/01/29 09:24:46;;;;;;;;;;;3.60;99.90;;;;;;8384422;28;20380;-74
2023/01/29 09:28:48;;;;;;;;;;;3.60;99.90;;;;;;8381274;28;19928;-74
2023/01/29 09:32:50;;;;;;;;;;;3.60;99.90;;;;;;8376056;28;20015;-75
2023/01/29 09:36:54;;;;;;;;;;;3.60;99.90;;;;;;8371628;28;19924;-75
2023/01/29 09:41:07;;;;;;;;;;;3.70;99.90;;;;;;8382009;28;19924;-74
2023/01/29 09:45:38;;;;;;;;;;;3.70;99.90;;;;;;8383197;28;19924;-74
2023/01/29 09:49:48;;;;;;;;;;;3.70;99.90;;;;;;8368284;28;19947;-74
2023/01/29 09:53:57;;;;;;;;;;;3.80;99.90;;;;;;8403185;28;20019;-74
2023/01/29 10:08:05;;;;;;;;;;;3.90;99.90;;;;;;8383850;28;19919;-75
2023/01/29 10:12:18;;;;;;;;;;;3.90;99.90;;;;;;8389944;28;19960;-75
2023/01/29 10:16:31;;;;;;;;;;;4.00;99.90;;;;;;8356345;28;20447;-75
2023/01/29 10:20:40;;;;;;;;;;;4.10;99.90;;;;;;8361943;28;19924;-75
2023/01/29 10:24:54;;;;;;;;;;;4.10;99.90;;;;;;8364348;28;19933;-75
2023/01/29 10:29:00;;;;;;;;;;;4.10;99.90;;;;;;8383629;28;19924;-75
2023/01/29 10:33:03;;;;;;;;;;;4.10;99.90;;;;;;8370748;28;19930;-74
2023/01/29 10:37:13;;;;;;;;;;;4.10;99.90;;;;;;8384386;28;19924;-75
2023/01/29 10:41:43;;;;;;;;;;;4.10;99.90;;;;;;8378417;28;20015;-75
2023/01/29 10:45:59;;;;;;;;;;;4.20;99.90;;;;;;8375172;28;19968;-75
2023/01/29 10:50:24;;;;;;;;;;;4.20;99.90;;;;;;8368428;28;19932;-74
2023/01/29 10:54:52;;;;;;;;;;;4.20;99.90;;;;;;8380728;28;20376;-75
2023/01/29 10:58:58;;;;;;;;;;;4.20;99.90;;;;;;8373223;28;20303;-74
2023/01/29 11:03:06;;;;;;;;;;;4.30;99.90;;;;;;8392892;28;19924;-74
2023/01/29 11:07:17;;;;;;;;;;;4.30;99.90;;;;;;8385331;28;20418;-74
2023/01/29 11:11:21;;;;;;;;;;;4.30;99.90;;;;;;8383168;28;20399;-75
2023/01/29 11:15:30;;;;;;;;;;;4.40;99.90;;;;;;8376265;28;19928;-75
2023/01/29 11:19:39;;;;;;;;;;;4.40;99.90;;;;;;8389760;28;19972;-74
2023/01/29 11:23:41;;;;;;;;;;;4.50;99.90;;;;;;8384405;28;19955;-74
2023/01/29 11:27:48;;;;;;;;;;;4.50;99.90;;;;;;8377063;28;19991;-74
2023/01/29 11:31:49;;;;;;;;;;;4.50;99.90;;;;;;8386275;28;19924;-75
2023/01/29 11:35:51;;;;;;;;;;;4.50;99.90;;;;;;8397421;28;19924;-74
2023/01/29 11:39:53;;;;;;;;;;;4.50;99.90;;;;;;8370816;28;20330;-75
2023/01/29 11:43:58;;;;;;;;;;;4.50;99.90;;;;;;8366300;28;19929;-75
2023/01/29 11:48:00;;;;;;;;;;;4.60;99.90;;;;;;8365887;28;19931;-74
2023/01/29 11:52:03;;;;;;;;;;;4.60;99.90;;;;;;8390176;28;20546;-75
2023/01/29 11:56:13;;;;;;;;;;;4.60;99.90;;;;;;8387935;28;20409;-74
2023/01/29 12:00:26;;;;;;;;;;;4.60;99.90;;;;;;8393424;28;20010;-74
2023/01/29 12:04:29;;;;;;;;;;;4.60;99.90;;;;;;8375409;28;19924;-75
2023/01/29 12:08:34;;;;;;;;;;;4.60;99.90;;;;;;8366993;28;20015;-74
2023/01/29 12:12:40;;;;;;;;;;;4.60;99.90;;;;;;8384534;28;19959;-74
2023/01/29 12:16:53;;;;;;;;;;;4.60;99.90;;;;;;8388313;28;19939;-74
2023/01/29 12:20:58;;;;;;;;;;;4.60;99.90;;;;;;8374777;28;19924;-74
2023/01/29 12:25:10;;;;;;;;;;;4.60;99.90;;;;;;8390887;28;20288;-74
2023/01/29 12:29:15;;;;;;;;;;;4.60;99.90;;;;;;8369154;28;19931;-75
2023/01/29 12:33:32;;;;;;;;;;;4.60;99.90;;;;;;8390513;28;19931;-75
2023/01/29 12:37:43;;;;;;;;;;;4.60;99.90;;;;;;8385447;28;19964;-75
2023/01/29 12:41:48;;;;;;;;;;;4.60;99.90;;;;;;8391625;28;19959;-75
2023/01/29 12:45:51;;;;;;;;;;;4.60;99.90;;;;;;8389405;28;20482;-74
2023/01/29 12:49:55;;;;;;;;;;;4.60;99.90;;;;;;8390647;28;19928;-75
2023/01/29 12:54:03;;;;;;;;;;;4.60;99.90;;;;;;8394807;28;19924;-75
2023/01/29 12:58:28;;;;;;;;;;;4.60;99.90;;;;;;8386144;28;19928;-74
2023/01/29 13:02:35;;;;;;;;;;;4.60;99.90;;;;;;8386971;28;19924;-75
2023/01/29 13:06:43;;;;;;;;;;;4.60;99.90;;;;;;8389648;28;19925;-75
2023/01/29 13:10:47;;;;;;;;;;;4.60;99.90;;;;;;8392993;28;19932;-74
2023/01/29 13:14:55;;;;;;;;;;;4.60;99.90;;;;;;8369307;28;20371;-74
2023/01/29 13:18:59;;;;;;;;;;;4.60;99.90;;;;;;8383353;28;19933;-75
2023/01/29 13:23:13;;;;;;;;;;;4.60;99.90;;;;;;8371588;28;19971;-75
2023/01/29 13:27:35;;;;;;;;;;;4.60;99.90;;;;;;8389372;28;19935;-75
2023/01/29 13:31:39;;;;;;;;;;;4.70;99.90;;;;;;8401925;28;19936;-75
2023/01/29 13:35:41;;;;;;;;;;;4.80;99.90;;;;;;8384941;28;19971;-75
2023/01/29 13:39:49;;;;;;;;;;;4.90;99.90;;;;;;8377588;28;20561;-74
2023/01/29 13:43:50;;;;;;;;;;;4.90;99.90;;;;;;8370881;28;19932;-75
2023/01/29 13:47:52;;;;;;;;;;;4.90;99.90;;;;;;8382347;28;19967;-74
2023/01/29 13:51:54;;;;;;;;;;;4.90;99.90;;;;;;8381309;28;20398;-74
2023/01/29 13:56:16;;;;;;;;;;;4.90;99.90;;;;;;8379212;28;20019;-74
2023/01/29 14:00:21;;;;;;;;;;;5.00;99.90;;;;;;8395198;28;19952;-74
2023/01/29 14:04:29;;;;;;;;;;;5.00;99.90;;;;;;8390866;28;20012;-75
2023/01/29 14:08:37;;;;;;;;;;;5.00;99.90;;;;;;8371050;28;19960;-75
2023/01/29 14:12:40;;;;;;;;;;;5.10;99.90;;;;;;8391355;28;19925;-74
2023/01/29 14:16:42;;;;;;;;;;;5.10;99.90;;;;;;8388323;28;20415;-74
2023/01/29 14:20:46;;;;;;;;;;;5.10;99.90;;;;;;8383963;28;20405;-74
2023/01/29 14:24:52;;;;;;;;;;;5.20;99.90;;;;;;8364482;28;20676;-74
2023/01/29 14:29:01;;;;;;;;;;;5.20;99.90;;;;;;8375404;28;19931;-74
2023/01/29 14:33:04;;;;;;;;;;;5.20;99.90;;;;;;8374753;28;20062;-75
2023/01/29 14:37:15;;;;;;;;;;;5.20;99.90;;;;;;8371761;28;20235;-74
2023/01/29 14:41:25;;;;;;;;;;;5.20;99.90;;;;;;8364030;28;20611;-74
2023/01/29 14:45:28;;;;;;;;;;;5.20;99.90;;;;;;8365009;28;20366;-75
2023/01/29 14:49:48;;;;;;;;;;;5.30;99.90;;;;;;8366371;28;19933;-74
2023/01/29 14:53:57;;;;;;;;;;;5.30;99.90;;;;;;8349512;28;19956;-75
2023/01/29 14:57:59;;;;;;;;;;;5.20;99.90;;;;;;8349895;28;20325;-75
2023/01/29 15:02:04;;;;;;;;;;;5.20;99.90;;;;;;8368219;28;20027;-73
2023/01/29 15:06:08;;;;;;;;;;;5.20;99.90;;;;;;8368627;28;19933;-74
2023/01/29 15:10:17;;;;;;;;;;;5.20;99.90;;;;;;8345494;28;19924;-74
2023/01/29 15:14:27;;;;;;;;;;;5.20;99.90;;;;;;8374995;28;19924;-75
2023/01/29 15:18:32;;;;;;;;;;;5.20;99.90;;;;;;8366559;28;19963;-74
2023/01/29 15:22:41;;;;;;;;;;;5.20;99.90;;;;;;8357015;28;20415;-75
2023/01/29 15:26:42;;;;;;;;;;;5.20;99.90;;;;;;8370736;28;19924;-74
2023/01/29 15:30:44;;;;;;;;;;;5.20;99.90;;;;;;8368272;28;19929;-74
2023/01/29 15:34:53;;;;;;;;;;;5.10;99.90;;;;;;8367482;28;19932;-75
2023/01/29 15:39:10;;;;;;;;;;;5.20;99.90;;;;;;8351612;28;20028;-75
2023/01/29 15:43:38;;;;;;;;;;;5.10;99.90;;;;;;8367005;28;19983;-74
2023/01/29 15:47:39;;;;;;;;;;;5.10;99.90;;;;;;8351800;28;19948;-75
2023/01/29 15:51:42;;;;;;;;;;;5.10;99.90;;;;;;8380682;28;19929;-75
2023/01/29 15:55:44;;;;;;;;;;;5.10;99.90;;;;;;8365569;28;19925;-75
2023/01/29 15:59:50;;;;;;;;;;;5.10;99.90;;;;;;8370418;28;20019;-75
2023/01/29 16:03:52;;;;;;;;;;;5.00;99.90;;;;;;8367822;28;20391;-74
2023/01/29 16:07:55;;;;;;;;;;;5.00;99.90;;;;;;8364508;28;19924;-75
2023/01/29 16:11:58;;;;;;;;;;;5.00;99.90;;;;;;8350521;28;19976;-75
2023/01/29 16:16:15;;;;;;;;;;;5.00;99.90;;;;;;8376215;28;19925;-74
2023/01/29 16:20:30;;;;;;;;;;;5.00;99.90;;;;;;8376472;28;20334;-75
2023/01/29 16:24:34;;;;;;;;;;;4.90;99.90;;;;;;8362907;28;19931;-74
2023/01/29 16:28:42;;;;;;;;;;;4.70;99.90;;;;;;8373282;28;19971;-74
2023/01/29 16:32:44;;;;;;;;;;;4.70;99.90;;;;;;8370062;28;19971;-74
2023/01/29 16:36:46;;;;;;;;;;;4.70;99.90;;;;;;8383007;28;19924;-75
2023/01/29 16:41:07;;;;;;;;;;;4.60;99.90;;;;;;8367969;28;19928;-74
2023/01/29 16:45:25;;;;;;;;;;;4.60;99.90;;;;;;8347350;28;19998;-74
2023/01/29 16:49:27;;;;;;;;;;;4.50;99.90;;;;;;8363208;28;20396;-75
2023/01/29 16:53:29;;;;;;;;;;;4.50;99.90;;;;;;8368685;28;19924;-74
2023/01/29 16:57:31;;;;;;;;;;;4.50;99.90;;;;;;8364984;28;20031;-75
2023/01/29 17:01:34;;;;;;;;;;;4.50;99.90;;;;;;8357903;28;19936;-74
2023/01/29 17:05:36;;;;;;;;;;;4.40;99.90;;;;;;8368957;28;19985;-74
2023/01/29 17:09:38;;;;;;;;;;;4.30;99.90;;;;;;8359270;28;20436;-73
2023/01/29 17:13:41;;;;;;;;;;;4.30;99.90;;;;;;8369000;28;20392;-74
2023/01/29 17:17:43;;;;;;;;;;;4.30;99.90;;;;;;8362496;28;19928;-74
2023/01/29 17:21:45;;;;;;;;;;;4.30;99.90;;;;;;8364446;28;19924;-75
2023/01/29 17:25:47;;;;;;;;;;;4.30;99.90;;;;;;8366366;28;20011;-74
2023/01/29 17:29:49;;;;;;;;;;;4.30;99.90;;;;;;8363913;28;19937;-74
2023/01/29 17:33:53;;;;;;;;;;;4.30;99.90;;;;;;8360342;28;20283;-74
2023/01/29 17:37:54;;;;;;;;;;;4.30;99.90;;;;;;8367703;28;19968;-74
2023/01/29 17:41:56;;;;;;;;;;;4.30;99.90;;;;;;8345595;28;19924;-74
2023/01/29 17:45:58;;;;;;;;;;;4.30;99.90;;;;;;8339048;28;19939;-74
2023/01/29 17:50:00;;;;;;;;;;;4.30;99.90;;;;;;8338623;28;19933;-75
2023/01/29 17:54:01;;;;;;;;;;;4.40;99.90;;;;;;8367151;28;19934;-74
2023/01/29 17:58:03;;;;;;;;;;;4.40;99.90;;;;;;8361504;28;19933;-74
2023/01/29 18:02:05;;;;;;;;;;;4.30;99.90;;;;;;8367048;28;19964;-74
2023/01/29 18:06:07;;;;;;;;;;;4.40;99.90;;;;;;8350661;28;19929;-74
2023/01/29 18:10:11;;;;;;;;;;;4.40;99.90;;;;;;8373902;28;20391;-74
2023/01/29 18:14:13;;;;;;;;;;;4.40;99.90;;;;;;8355407;28;19947;-74
2023/01/29 18:18:18;;;;;;;;;;;4.40;99.90;;;;;;8353565;28;19928;-74
2023/01/29 18:22:19;;;;;;;;;;;4.50;99.90;;;;;;8379257;28;20457;-74
2023/01/29 18:26:21;;;;;;;;;;;4.50;99.90;;;;;;8365136;28;20038;-74
2023/01/29 18:30:23;;;;;;;;;;;4.50;99.90;;;;;;8358266;28;19931;-74
2023/01/29 18:34:24;;;;;;;;;;;4.50;99.90;;;;;;8351966;28;19937;-75
2023/01/29 18:38:26;;;;;;;;;;;4.50;99.90;;;;;;8360053;28;20019;-74
2023/01/29 18:42:29;;;;;;;;;;;4.50;99.90;;;;;;8371699;28;19924;-74
2023/01/29 18:46:32;;;;;;;;;;;4.50;99.90;;;;;;8373320;28;19976;-74
2023/01/29 18:50:34;;;;;;;;;;;4.50;99.90;;;;;;8376308;28;20402;-74
2023/01/29 18:54:36;;;;;;;;;;;4.50;99.90;;;;;;8367307;28;19929;-74
2023/01/29 18:58:38;;;;;;;;;;;4.50;99.90;;;;;;8379219;28;19951;-74
2023/01/29 19:02:41;;;;;;;;;;;4.50;99.90;;;;;;8361244;28;20326;-74
2023/01/29 19:06:43;;;;;;;;;;;4.50;99.90;;;;;;8357671;28;19975;-74
2023/01/29 19:20:51;;;;;;;;;;;4.50;99.90;;;;;;8362526;28;19920;-74
2023/01/29 19:24:53;;;;;;;;;;;4.50;99.90;;;;;;8367234;28;19932;-74
2023/01/29 19:28:55;;;;;;;;;;;4.50;99.90;;;;;;8375045;28;20459;-74
2023/01/29 19:32:56;;;;;;;;;;;4.50;99.90;;;;;;8370643;28;19935;-74
2023/01/29 19:36:58;;;;;;;;;;;4.50;99.90;;;;;;8359980;28;19925;-74
2023/01/29 19:41:00;;;;;;;;;;;4.50;99.90;;;;;;8365412;28;19996;-74
2023/01/29 19:45:02;;;;;;;;;;;4.50;99.90;;;;;;8360169;28;20020;-74
2023/01/29 19:49:05;;;;;;;;;;;4.50;99.90;;;;;;8368238;28;20354;-75
2023/01/29 19:53:07;;;;;;;;;;;4.60;99.90;;;;;;8369909;28;19936;-74
2023/01/29 19:57:08;;;;;;;;;;;4.50;99.90;;;;;;8368186;28;20438;-75
2023/01/29 20:01:17;;;;;;;;;;;4.50;99.90;;;;;;8366318;28;19940;-74
2023/01/29 20:05:19;;;;;;;;;;;4.50;99.90;;;;;;8355655;28;19924;-74
2023/01/29 20:09:21;;;;;;;;;;;4.50;99.90;;;;;;8370073;28;19932;-74
2023/01/29 20:13:22;;;;;;;;;;;4.60;99.90;;;;;;8374232;28;20063;-74
2023/01/29 20:17:24;;;;;;;;;;;4.60;99.90;;;;;;8364785;28;19931;-74
2023/01/29 20:21:26;;;;;;;;;;;4.60;99.90;;;;;;8367499;28;19932;-74
2023/01/29 20:25:28;;;;;;;;;;;4.70;99.90;;;;;;8370367;28;19932;-74
2023/01/29 20:29:30;;;;;;;;;;;4.70;99.90;;;;;;8382435;28;19932;-74
2023/01/29 20:33:33;;;;;;;;;;;4.60;99.90;;;;;;8355060;28;20403;-74
2023/01/29 20:37:35;;;;;;;;;;;4.70;99.90;;;;;;8364652;28;20404;-74
2023/01/29 20:41:40;;;;;;;;;;;4.70;99.90;;;;;;8355576;28;19929;-74
2023/01/29 20:45:42;;;;;;;;;;;4.70;99.90;;;;;;8368237;28;19933;-74
2023/01/29 20:49:43;;;;;;;;;;;4.80;99.90;;;;;;8363610;28;19924;-74
2023/01/29 20:53:46;;;;;;;;;;;4.80;99.90;;;;;;8372845;28;19928;-74
2023/01/29 20:57:48;;;;;;;;;;;4.80;99.90;;;;;;8360375;28;20015;-75
2023/01/29 21:02:08;;;;;;;;;;;4.90;99.90;;;;;;8369145;28;19932;-75
2023/01/29 21:06:10;;;;;;;;;;;4.90;99.90;;;;;;8375554;28;19995;-75
2023/01/29 21:10:12;;;;;;;;;;;4.90;99.90;;;;;;8374833;28;20044;-74
2023/01/29 21:14:14;;;;;;;;;;;4.90;99.90;;;;;;8365489;28;20410;-74
2023/01/29 21:18:15;;;;;;;;;;;4.90;99.90;;;;;;8363012;28;20023;-74
2023/01/29 21:22:17;;;;;;;;;;;4.90;99.90;;;;;;8370447;28;20318;-74
2023/01/29 21:26:19;;;;;;;;;;;5.00;99.90;;;;;;8364743;28;19977;-74
2023/01/29 21:30:23;;;;;;;;;;;5.00;99.90;;;;;;8368656;28;19928;-74
2023/01/29 21:34:25;;;;;;;;;;;5.00;99.90;;;;;;8350517;28;20264;-74
2023/01/29 21:38:27;;;;;;;;;;;5.10;99.90;;;;;;8363057;28;20026;-74
2023/01/29 21:46:49;;;;;;;;;;;5.20;99.90;;;;;;8370354;28;19924;-75
2023/01/29 21:50:51;;;;;;;;;;;5.20;99.90;;;;;;8350867;28;19924;-74
2023/01/29 21:54:52;;;;;;;;;;;5.20;99.90;;;;;;8363883;28;20253;-74
2023/01/29 21:58:54;;;;;;;;;;;5.20;99.90;;;;;;8357016;28;19943;-74
2023/01/29 22:02:56;;;;;;;;;;;5.30;99.90;;;;;;8365636;28;19924;-74
2023/01/29 22:06:57;;;;;;;;;;;5.30;99.90;;;;;;8393005;28;20261;-74
2023/01/29 22:11:06;;;;;;;;;;;5.30;99.90;;;;;;8387648;28;19932;-74
2023/01/29 22:15:08;;;;;;;;;;;5.30;99.90;;;;;;8391172;28;19939;-74
2023/01/29 22:19:10;;;;;;;;;;;5.30;99.90;;;;;;8391506;28;19960;-74
2023/01/29 22:23:12;;;;;;;;;;;5.40;99.90;;;;;;8389713;28;20403;-74
2023/01/29 22:27:14;;;;;;;;;;;5.50;99.90;;;;;;8387044;28;19939;-74
2023/01/29 22:31:15;;;;;;;;;;;5.50;99.90;;;;;;8387282;28;19939;-74
2023/01/29 22:35:17;;;;;;;;;;;5.60;99.90;;;;;;8361497;28;19936;-74
2023/01/29 22:39:19;;;;;;;;;;;5.60;99.90;;;;;;8389141;28;19971;-74
2023/01/29 22:43:21;;;;;;;;;;;5.60;99.90;;;;;;8369550;28;19943;-74
2023/01/29 22:47:22;;;;;;;;;;;5.70;99.90;;;;;;8359481;28;19932;-74
2023/01/29 22:51:24;;;;;;;;;;;5.70;99.90;;;;;;8388501;28;19936;-74
2023/01/29 22:55:26;;;;;;;;;;;5.70;99.90;;;;;;8379318;28;19928;-74
2023/01/29 22:59:27;;;;;;;;;;;5.70;99.90;;;;;;8379431;28;20014;-74
2023/01/29 23:03:30;;;;;;;;;;;5.80;99.90;;;;;;8376333;28;19947;-74
2023/01/29 23:07:32;;;;;;;;;;;5.80;99.90;;;;;;8391178;28;20331;-74
2023/01/29 23:11:34;;;;;;;;;;;5.80;99.90;;;;;;8390006;28;19924;-74
2023/01/29 23:15:35;;;;;;;;;;;5.90;99.90;;;;;;8377337;28;19974;-74
2023/01/29 23:19:37;;;;;;;;;;;5.90;99.90;;;;;;8392911;28;19924;-74
2023/01/29 23:23:39;;;;;;;;;;;5.90;99.90;;;;;;8393527;28;19964;-74
2023/01/29 23:27:40;;;;;;;;;;;6.00;99.90;;;;;;8395778;28;19924;-74
2023/01/29 23:31:42;;;;;;;;;;;6.00;99.90;;;;;;8379690;28;20356;-74
2023/01/29 23:35:43;;;;;;;;;;;6.00;99.90;;;;;;8391439;28;19969;-74
2023/01/29 23:39:45;;;;;;;;;;;6.10;99.90;;;;;;8392950;28;19924;-74
2023/01/29 23:43:47;;;;;;;;;;;6.10;99.90;;;;;;8389639;28;20011;-74
2023/01/29 23:47:48;;;;;;;;;;;6.20;99.90;;;;;;8373883;28;20298;-74
2023/01/29 23:56:53;;;;;;;;;;;6.20;99.90;;;;;;8391158;28;19923;-74
